createdAt,value
2018-08-18T00:02:22.631Z,3.30
2018-08-18T00:04:49.919Z,4.30
2018-08-18T00:07:17.130Z,3.30
2018-08-18T00:09:44.359Z,3.23
2018-08-18T00:12:17.306Z,3.63
2018-08-18T00:14:44.575Z,3.40
2018-08-18T00:17:12.667Z,3.50
2018-08-18T00:22:30.520Z,3.40
2018-08-18T00:24:58.733Z,3.53
2018-08-18T00:27:26.588Z,4.20
2018-08-18T00:29:58.387Z,3.70
2018-08-18T00:32:25.606Z,4.20
2018-08-18T00:34:53.799Z,3.60
2018-08-18T00:37:22.242Z,3.77
2018-08-18T00:39:49.518Z,4.20
2018-08-18T00:42:16.731Z,4.73
2018-08-18T00:44:43.946Z,3.73
2018-08-18T00:47:11.229Z,3.60
2018-08-18T00:49:38.448Z,4.37
2018-08-18T00:52:05.875Z,3.70
2018-08-18T00:54:33.127Z,3.57
2018-08-18T00:57:03.371Z,3.83
2018-08-18T00:59:37.092Z,3.67
2018-08-18T01:02:04.448Z,3.63
2018-08-18T01:04:32.145Z,4.17
2018-08-18T01:06:59.403Z,4.00
2018-08-18T01:09:27.650Z,3.70
2018-08-18T01:11:54.914Z,3.93
2018-08-18T01:14:22.268Z,3.83
2018-08-18T01:16:51.690Z,3.47
2018-08-18T01:19:19.933Z,3.37
2018-08-18T01:22:01.870Z,3.70
2018-08-18T01:24:29.103Z,3.73
2018-08-18T01:26:56.745Z,3.73
2018-08-18T01:29:23.979Z,3.40
2018-08-18T01:31:51.212Z,3.33
2018-08-18T01:34:18.461Z,4.07
2018-08-18T01:36:45.705Z,4.10
2018-08-18T01:39:13.993Z,3.53
2018-08-18T01:41:41.246Z,4.10
2018-08-18T01:44:13.914Z,3.50
2018-08-18T01:46:41.772Z,3.60
2018-08-18T01:49:33.630Z,3.30
2018-08-18T01:52:03.043Z,3.20
2018-08-18T01:54:30.579Z,3.80
2018-08-18T01:57:03.502Z,3.80
2018-08-18T01:59:30.759Z,3.43
2018-08-18T02:01:58.038Z,3.93
2018-08-18T02:04:25.245Z,3.83
2018-08-18T02:06:53.486Z,4.33
2018-08-18T02:09:20.728Z,4.10
2018-08-18T02:11:51.566Z,4.17
2018-08-18T02:14:20.254Z,4.47
2018-08-18T02:16:48.632Z,4.97
2018-08-18T02:19:16.903Z,4.73
2018-08-18T02:21:44.126Z,3.87
2018-08-18T02:24:12.490Z,4.20
2018-08-18T02:26:39.948Z,4.30
2018-08-18T02:29:07.162Z,4.70
2018-08-18T02:31:34.388Z,4.03
2018-08-18T02:34:01.584Z,4.20
2018-08-18T02:36:28.916Z,3.47
2018-08-18T02:38:57.288Z,4.07
2018-08-18T02:41:25.784Z,4.43
2018-08-18T02:43:53.516Z,3.90
2018-08-18T02:46:28.202Z,3.17
2018-08-18T02:48:55.418Z,3.37
2018-08-18T02:51:22.674Z,3.63
2018-08-18T02:53:49.939Z,3.93
2018-08-18T02:56:17.170Z,3.67
2018-08-18T02:58:48.951Z,3.57
2018-08-18T03:01:16.186Z,3.67
2018-08-18T03:03:43.386Z,3.93
2018-08-18T03:06:11.480Z,4.33
2018-08-18T03:08:38.811Z,4.00
2018-08-18T03:11:06.401Z,3.70
2018-08-18T03:13:33.644Z,4.10
2018-08-18T03:16:02.259Z,4.23
2018-08-18T03:18:35.848Z,3.70
2018-08-18T03:21:04.135Z,3.77
2018-08-18T03:23:32.943Z,3.83
2018-08-18T03:26:00.198Z,4.23
2018-08-18T03:28:27.434Z,4.10
2018-08-18T03:30:55.315Z,3.97
2018-08-18T03:33:22.573Z,3.93
2018-08-18T03:35:49.773Z,3.83
2018-08-18T03:38:17.068Z,4.20
2018-08-18T03:40:44.309Z,4.43
2018-08-18T03:43:11.524Z,4.60
2018-08-18T03:45:38.726Z,4.67
2018-08-18T03:48:05.942Z,3.77
2018-08-18T03:50:45.638Z,3.83
2018-08-18T03:53:15.674Z,3.70
2018-08-18T03:55:43.092Z,4.60
2018-08-18T03:58:10.338Z,4.23
2018-08-18T04:00:37.987Z,3.90
2018-08-18T04:03:05.230Z,4.20
2018-08-18T04:05:32.422Z,4.73
2018-08-18T04:07:59.654Z,4.53
2018-08-18T04:10:26.892Z,4.50
2018-08-18T04:12:54.143Z,5.43
2018-08-18T04:15:21.352Z,4.83
2018-08-18T04:17:48.605Z,4.93
2018-08-18T04:20:15.847Z,4.97
2018-08-18T04:22:43.439Z,5.53
2018-08-18T04:25:10.690Z,5.53
2018-08-18T04:27:39.717Z,4.63
2018-08-18T04:30:11.874Z,5.13
2018-08-18T04:33:04.306Z,5.27
2018-08-18T04:35:32.310Z,5.10
2018-08-18T04:38:01.411Z,5.20
2018-08-18T04:40:28.717Z,5.53
2018-08-18T04:42:56.922Z,5.40
2018-08-18T04:45:24.176Z,6.10
2018-08-18T04:47:51.451Z,5.00
2018-08-18T04:50:19.289Z,5.97
2018-08-18T04:52:46.520Z,6.03
2018-08-18T04:55:14.593Z,5.70
2018-08-18T04:57:41.810Z,5.43
2018-08-18T05:00:10.567Z,5.57
2018-08-18T05:02:42.755Z,5.57
2018-08-18T05:05:10.416Z,6.40
2018-08-18T05:07:43.840Z,4.90
2018-08-18T05:10:11.575Z,5.23
2018-08-18T05:12:38.812Z,5.70
2018-08-18T05:15:06.109Z,5.13
2018-08-18T05:17:33.400Z,5.63
2018-08-18T05:20:14.209Z,5.90
2018-08-18T05:22:41.866Z,6.67
2018-08-18T05:25:09.118Z,5.90
2018-08-18T05:27:36.395Z,5.50
2018-08-18T05:30:04.171Z,5.23
2018-08-18T05:32:31.401Z,5.37
2018-08-18T05:34:58.681Z,6.23
2018-08-18T05:37:25.871Z,6.00
2018-08-18T05:39:53.106Z,6.40
2018-08-18T05:42:20.346Z,5.93
2018-08-18T05:44:47.598Z,6.80
2018-08-18T05:47:15.071Z,7.23
2018-08-18T05:49:42.306Z,7.00
2018-08-18T05:52:09.569Z,6.63
2018-08-18T05:54:36.836Z,5.47
2018-08-18T05:57:05.190Z,6.30
2018-08-18T05:59:33.930Z,6.00
2018-08-18T06:02:01.229Z,6.33
2018-08-18T06:04:28.462Z,6.67
2018-08-18T06:06:55.690Z,6.23
2018-08-18T06:09:23.326Z,6.43
2018-08-18T06:11:50.627Z,6.07
2018-08-18T06:14:18.351Z,6.00
2018-08-18T06:16:46.080Z,7.17
2018-08-18T06:19:13.426Z,7.17
2018-08-18T06:21:40.739Z,6.77
2018-08-18T06:24:08.110Z,7.03
2018-08-18T06:26:35.542Z,5.90
2018-08-18T06:29:02.857Z,7.77
2018-08-18T06:31:30.136Z,6.80
2018-08-18T06:33:57.406Z,6.83
2018-08-18T06:36:24.759Z,6.07
2018-08-18T06:38:51.987Z,6.40
2018-08-18T06:41:19.276Z,6.10
2018-08-18T06:43:46.503Z,5.67
2018-08-18T06:46:13.807Z,6.10
2018-08-18T06:48:41.030Z,7.17
2018-08-18T06:51:08.286Z,7.60
2018-08-18T06:53:41.279Z,6.23
2018-08-18T06:56:09.009Z,6.40
2018-08-18T06:58:36.536Z,7.03
2018-08-18T07:01:04.117Z,7.00
2018-08-18T07:03:32.948Z,7.43
2018-08-18T07:06:00.487Z,6.53
2018-08-18T07:08:28.114Z,7.73
2018-08-18T07:10:55.370Z,6.87
2018-08-18T07:13:22.602Z,7.23
2018-08-18T07:15:50.252Z,6.10
2018-08-18T07:18:17.563Z,7.53
2018-08-18T07:20:44.796Z,6.93
2018-08-18T07:23:12.042Z,7.40
2018-08-18T07:25:46.068Z,7.37
2018-08-18T07:28:13.387Z,8.30
2018-08-18T07:30:40.619Z,6.53
2018-08-18T07:33:07.878Z,7.67
2018-08-18T07:35:35.144Z,7.43
2018-08-18T07:38:02.463Z,7.87
2018-08-18T07:40:35.363Z,7.35
2018-08-18T07:43:05.790Z,6.58
2018-08-18T07:45:34.532Z,7.53
2018-08-18T07:48:03.895Z,6.65
2018-08-18T07:50:31.627Z,7.12
2018-08-18T07:52:59.179Z,7.20
2018-08-18T07:55:30.764Z,5.95
2018-08-18T07:57:59.447Z,6.87
2018-08-18T08:00:30.598Z,5.47
2018-08-18T08:02:58.830Z,7.62
2018-08-18T08:05:26.077Z,7.28
2018-08-18T08:07:53.364Z,5.75
2018-08-18T08:10:21.008Z,6.42
2018-08-18T08:12:48.459Z,6.78
2018-08-18T08:15:16.054Z,6.05
2018-08-18T08:17:44.035Z,5.80
2018-08-18T08:20:11.475Z,6.28
2018-08-18T08:22:38.760Z,6.90
2018-08-18T08:25:07.048Z,6.80
2018-08-18T08:27:34.322Z,5.72
2018-08-18T08:30:01.558Z,6.67
2018-08-18T08:32:28.793Z,7.12
2018-08-18T08:34:56.071Z,6.70
2018-08-18T08:37:23.384Z,6.28
2018-08-18T08:39:50.604Z,7.37
2018-08-18T08:42:17.858Z,6.42
2018-08-18T08:44:45.087Z,6.47
2018-08-18T08:47:14.255Z,7.35
2018-08-18T08:49:41.550Z,6.37
2018-08-18T08:52:08.827Z,7.65
2018-08-18T08:54:37.319Z,7.00
2018-08-18T08:57:07.092Z,6.40
2018-08-18T08:59:35.579Z,6.17
2018-08-18T09:02:03.174Z,6.83
2018-08-18T09:04:30.977Z,6.62
2018-08-18T09:06:58.267Z,8.15
2018-08-18T09:09:25.838Z,7.62
2018-08-18T09:11:53.207Z,7.58
2018-08-18T09:14:20.691Z,8.10
2018-08-18T09:16:47.980Z,6.87
2018-08-18T09:19:15.337Z,7.17
2018-08-18T09:21:49.290Z,7.58
2018-08-18T09:24:16.551Z,7.47
2018-08-18T09:26:49.444Z,7.70
2018-08-18T09:29:16.694Z,8.15
2018-08-18T09:31:44.650Z,7.97
2018-08-18T09:34:12.149Z,7.47
2018-08-18T09:36:39.915Z,8.10
2018-08-18T09:39:09.135Z,8.03
2018-08-18T09:41:37.242Z,7.90
2018-08-18T09:44:04.505Z,7.70
2018-08-18T09:46:31.785Z,8.83
2018-08-18T09:48:59.125Z,10.00
2018-08-18T09:51:26.336Z,8.80
2018-08-18T09:53:53.691Z,8.90
2018-08-18T09:56:20.943Z,7.92
2018-08-18T09:58:48.175Z,9.38
2018-08-18T10:01:15.434Z,9.20
2018-08-18T10:03:42.659Z,9.48
2018-08-18T10:06:09.916Z,9.03
2018-08-18T10:08:37.162Z,8.88
2018-08-18T10:11:04.507Z,9.05
2018-08-18T10:13:31.734Z,9.73
2018-08-18T10:15:59.054Z,9.90
2018-08-18T10:18:27.850Z,10.75
2018-08-18T10:20:55.067Z,11.33
2018-08-18T10:23:22.313Z,10.60
2018-08-18T10:25:49.548Z,9.73
2018-08-18T10:28:17.478Z,12.25
2018-08-18T10:30:44.711Z,12.45
2018-08-18T10:33:11.971Z,11.05
2018-08-18T10:35:39.240Z,11.43
2018-08-18T10:38:06.600Z,10.30
2018-08-18T10:40:33.862Z,10.38
2018-08-18T10:43:03.131Z,9.78
2018-08-18T10:45:30.354Z,9.83
2018-08-18T10:47:57.615Z,10.10
2018-08-18T10:51:38.618Z,10.48
2018-08-18T10:54:05.988Z,10.58
2018-08-18T10:56:33.982Z,10.70
2018-08-18T10:59:16.407Z,10.40
2018-08-18T11:01:59.360Z,10.68
2018-08-18T11:04:28.443Z,8.98
2018-08-18T11:06:57.256Z,10.90
2018-08-18T11:09:25.109Z,9.48
2018-08-18T11:11:52.582Z,11.40
2018-08-18T11:14:20.266Z,10.55
2018-08-18T11:16:47.574Z,9.98
2018-08-18T11:19:14.827Z,10.30
2018-08-18T11:21:42.104Z,11.00
2018-08-18T11:24:09.366Z,11.40
2018-08-18T11:26:38.453Z,12.10
2018-08-18T11:29:15.268Z,11.12
2018-08-18T11:31:42.690Z,11.30
2018-08-18T11:34:09.964Z,10.23
2018-08-18T11:36:41.882Z,10.53
2018-08-18T11:39:09.171Z,9.83
2018-08-18T11:41:36.443Z,10.08
2018-08-18T11:44:03.740Z,10.35
2018-08-18T11:46:35.516Z,10.25
2018-08-18T11:49:03.170Z,11.12
2018-08-18T11:51:35.224Z,10.65
2018-08-18T11:54:05.554Z,10.48
2018-08-18T11:56:38.052Z,11.12
2018-08-18T11:59:08.717Z,9.40
2018-08-18T12:01:39.313Z,10.75
2018-08-18T12:04:06.844Z,11.03
2018-08-18T12:06:34.195Z,9.65
2018-08-18T12:09:02.158Z,9.43
2018-08-18T12:11:29.914Z,10.05
2018-08-18T12:13:57.718Z,8.63
2018-08-18T12:16:25.007Z,10.00
2018-08-18T12:18:54.359Z,9.50
2018-08-18T12:21:21.639Z,9.53
2018-08-18T12:23:48.911Z,10.43
2018-08-18T12:26:19.272Z,11.15
2018-08-18T12:28:47.722Z,10.50
2018-08-18T12:31:17.872Z,10.45
2018-08-18T12:33:45.760Z,10.00
2018-08-18T12:36:13.080Z,10.18
2018-08-18T12:38:43.972Z,9.30
2018-08-18T12:41:11.322Z,9.30
2018-08-18T12:43:39.830Z,10.88
2018-08-18T12:46:10.214Z,10.65
2018-08-18T12:48:40.498Z,9.40
2018-08-18T12:51:09.287Z,11.22
2018-08-18T12:53:42.304Z,9.10
2018-08-18T12:56:11.545Z,10.23
2018-08-18T12:58:39.094Z,10.28
2018-08-18T13:01:06.175Z,9.43
2018-08-18T13:03:33.414Z,9.25
2018-08-18T13:06:00.739Z,9.23
2018-08-18T13:08:27.986Z,8.80
2018-08-18T13:10:55.578Z,9.43
2018-08-18T13:13:23.050Z,9.83
2018-08-18T13:15:51.239Z,9.85
2018-08-18T13:18:18.690Z,9.20
2018-08-18T13:20:47.712Z,9.40
2018-08-18T13:23:16.944Z,10.00
2018-08-18T13:25:44.187Z,9.63
2018-08-18T13:28:11.442Z,8.90
2018-08-18T13:30:38.691Z,9.53
2018-08-18T13:33:05.972Z,8.38
2018-08-18T13:35:33.239Z,9.43
2018-08-18T13:38:00.467Z,8.73
2018-08-18T13:40:28.297Z,8.83
2018-08-18T13:42:55.506Z,8.58
2018-08-18T13:45:46.511Z,9.38
2018-08-18T13:48:13.778Z,8.73
2018-08-18T13:50:41.465Z,8.68
2018-08-18T13:53:08.783Z,9.48
2018-08-18T13:55:37.765Z,9.23
2018-08-18T13:58:05.451Z,9.80
2018-08-18T14:00:32.716Z,8.98
2018-08-18T14:03:00.154Z,8.10
2018-08-18T14:05:28.731Z,7.95
2018-08-18T14:07:59.385Z,8.30
2018-08-18T14:10:26.606Z,7.55
2018-08-18T14:12:54.876Z,7.50
2018-08-18T14:15:22.240Z,7.97
2018-08-18T14:17:59.452Z,8.48
2018-08-18T14:20:26.714Z,8.65
2018-08-18T14:22:58.796Z,8.68
2018-08-18T14:25:26.012Z,8.50
2018-08-18T14:27:58.975Z,8.43
2018-08-18T14:30:26.240Z,9.30
2018-08-18T14:32:53.464Z,8.10
2018-08-18T14:35:20.674Z,7.92
2018-08-18T14:37:47.944Z,8.33
2018-08-18T14:40:16.644Z,9.18
2018-08-18T14:42:44.332Z,8.20
2018-08-18T14:45:14.107Z,8.00
2018-08-18T14:47:41.412Z,6.95
2018-08-18T14:50:21.023Z,7.62
2018-08-18T14:52:48.295Z,7.47
2018-08-18T14:55:15.916Z,8.63
2018-08-18T14:57:48.926Z,8.25
2018-08-18T15:00:16.164Z,8.23
2018-08-18T15:02:43.428Z,8.23
2018-08-18T15:05:10.677Z,8.18
2018-08-18T15:07:43.410Z,8.55
2018-08-18T15:10:20.937Z,8.65
2018-08-18T15:12:48.246Z,8.50
2018-08-18T15:15:15.474Z,7.95
2018-08-18T15:17:42.754Z,8.25
2018-08-18T15:20:09.971Z,7.60
2018-08-18T15:22:37.212Z,8.80
2018-08-18T15:25:04.474Z,8.50
2018-08-18T15:27:31.708Z,7.80
2018-08-18T15:29:58.918Z,8.25
2018-08-18T15:32:26.740Z,7.33
2018-08-18T15:34:53.942Z,8.73
2018-08-18T15:37:21.163Z,7.70
2018-08-18T15:39:48.383Z,7.45
2018-08-18T15:42:15.639Z,7.53
2018-08-18T15:44:55.417Z,7.97
2018-08-18T15:47:22.671Z,7.75
2018-08-18T15:49:49.890Z,7.87
2018-08-18T15:52:18.156Z,7.70
2018-08-18T15:54:45.435Z,7.20
2018-08-18T15:57:12.671Z,7.53
2018-08-18T15:59:39.943Z,7.35
2018-08-18T16:02:07.224Z,7.25
2018-08-18T16:04:34.446Z,7.70
2018-08-18T16:07:01.671Z,7.50
2018-08-18T16:09:28.911Z,8.13
2018-08-18T16:11:56.112Z,8.00
2018-08-18T16:14:23.349Z,6.78
2018-08-18T16:16:58.887Z,7.95
2018-08-18T16:19:26.206Z,9.98
2018-08-18T16:21:53.431Z,8.00
2018-08-18T16:24:31.607Z,7.40
2018-08-18T16:26:59.875Z,7.33
2018-08-18T16:29:27.138Z,7.12
2018-08-18T16:32:26.611Z,7.92
2018-08-18T16:35:00.744Z,10.65
2018-08-18T16:37:28.310Z,8.15
2018-08-18T16:39:56.036Z,7.47
2018-08-18T16:42:23.255Z,8.10
2018-08-18T16:44:50.663Z,7.70
2018-08-18T16:47:18.063Z,7.03
2018-08-18T16:49:45.364Z,7.60
2018-08-18T16:52:13.545Z,7.25
2018-08-18T16:54:40.765Z,6.37
2018-08-18T16:57:08.052Z,7.65
2018-08-18T16:59:35.882Z,7.65
2018-08-18T17:02:03.888Z,7.30
2018-08-18T17:04:31.999Z,8.15
2018-08-18T17:07:00.048Z,7.85
2018-08-18T17:09:37.457Z,6.20
2018-08-18T17:12:16.037Z,7.55
2018-08-18T17:14:43.330Z,7.80
2018-08-18T17:17:11.480Z,7.70
2018-08-18T17:19:39.256Z,7.55
2018-08-18T17:22:07.519Z,8.13
2018-08-18T17:24:34.783Z,10.15
2018-08-18T17:27:02.136Z,9.13
2018-08-18T17:29:34.068Z,7.92
2018-08-18T17:32:02.057Z,7.53
2018-08-18T17:34:29.314Z,9.13
2018-08-18T17:36:56.583Z,9.78
2018-08-18T17:39:23.845Z,8.03
2018-08-18T17:41:51.124Z,13.65
2018-08-18T17:44:18.416Z,7.62
2018-08-18T17:46:51.621Z,8.08
2018-08-18T17:49:19.310Z,7.65
2018-08-18T17:51:56.995Z,7.22
2018-08-18T17:54:24.308Z,7.35
2018-08-18T17:56:51.679Z,6.78
2018-08-18T17:59:19.174Z,6.50
2018-08-18T18:02:00.378Z,6.80
2018-08-18T18:04:28.810Z,7.42
2018-08-18T18:06:57.195Z,7.72
2018-08-18T18:09:25.838Z,7.50
2018-08-18T18:11:53.242Z,7.03
2018-08-18T18:14:20.696Z,7.08
2018-08-18T18:16:48.109Z,7.03
2018-08-18T18:19:15.389Z,6.83
2018-08-18T18:21:43.512Z,7.30
2018-08-18T18:24:11.350Z,7.20
2018-08-18T18:26:39.153Z,7.80
2018-08-18T18:29:07.064Z,8.10
2018-08-18T18:31:34.307Z,6.50
2018-08-18T18:34:02.446Z,7.63
2018-08-18T18:36:30.344Z,7.93
2018-08-18T18:38:57.666Z,7.40
2018-08-18T18:41:25.180Z,7.58
2018-08-18T18:43:56.730Z,8.13
2018-08-18T18:46:24.025Z,7.43
2018-08-18T18:48:51.321Z,7.80
2018-08-18T18:51:18.575Z,7.67
2018-08-18T18:53:48.403Z,7.77
2018-08-18T18:56:15.667Z,7.27
2018-08-18T18:58:42.924Z,7.60
2018-08-18T19:01:10.201Z,7.83
2018-08-18T19:03:37.451Z,7.87
2018-08-18T19:06:04.744Z,7.40
2018-08-18T19:08:32.255Z,7.60
2018-08-18T19:11:02.225Z,7.37
2018-08-18T19:13:29.434Z,7.20
2018-08-18T19:15:56.759Z,8.67
2018-08-18T19:18:23.951Z,8.37
2018-08-18T19:20:51.209Z,8.70
2018-08-18T19:23:19.614Z,7.93
2018-08-18T19:25:48.047Z,8.30
2018-08-18T19:28:22.718Z,8.53
2018-08-18T19:30:49.974Z,8.30
2018-08-18T19:33:17.836Z,6.90
2018-08-18T19:35:50.054Z,7.83
2018-08-18T19:38:18.243Z,7.13
2018-08-18T19:40:46.785Z,7.83
2018-08-18T19:43:22.572Z,7.33
2018-08-18T19:45:50.283Z,8.27
2018-08-18T19:48:19.110Z,7.40
2018-08-18T19:50:53.667Z,6.97
2018-08-18T19:53:21.183Z,7.17
2018-08-18T19:55:49.272Z,7.10
2018-08-18T19:58:16.483Z,7.43
2018-08-18T20:00:43.755Z,7.17
2018-08-18T20:03:13.014Z,7.37
2018-08-18T20:05:40.308Z,7.17
2018-08-18T20:08:07.556Z,7.47
2018-08-18T20:10:38.528Z,7.63
2018-08-18T20:13:05.734Z,7.47
2018-08-18T20:15:32.940Z,7.53
2018-08-18T20:18:00.985Z,8.90
2018-08-18T20:20:28.183Z,7.03
2018-08-18T20:22:55.420Z,6.97
2018-08-18T20:25:22.662Z,7.90
2018-08-18T20:27:49.937Z,7.43
2018-08-18T20:30:17.146Z,7.20
2018-08-18T20:32:44.387Z,7.90
2018-08-18T20:35:11.636Z,7.20
2018-08-18T20:37:38.881Z,6.97
2018-08-18T20:40:07.800Z,6.60
2018-08-18T20:42:39.475Z,7.30
2018-08-18T20:45:09.139Z,6.93
2018-08-18T20:47:36.410Z,7.60
2018-08-18T20:50:05.383Z,7.53
2018-08-18T20:52:32.655Z,7.33
2018-08-18T20:55:00.293Z,8.20
2018-08-18T20:57:27.560Z,8.23
2018-08-18T20:59:54.772Z,8.73
2018-08-18T21:02:22.026Z,8.27
2018-08-18T21:04:55.645Z,7.90
2018-08-18T21:07:23.044Z,7.63
2018-08-18T21:09:50.286Z,8.27
2018-08-18T21:12:17.555Z,8.60
2018-08-18T21:14:44.791Z,8.80
2018-08-18T21:17:12.050Z,8.83
2018-08-18T21:19:39.254Z,9.20
2018-08-18T21:22:07.280Z,8.63
2018-08-18T21:24:34.509Z,7.90
2018-08-18T21:27:01.784Z,8.00
2018-08-18T21:29:29.013Z,8.33
2018-08-18T21:31:56.250Z,7.80
2018-08-18T21:34:23.470Z,8.40
2018-08-18T21:36:50.703Z,8.77
2018-08-18T21:39:17.947Z,9.10
2018-08-18T21:41:46.383Z,8.20
2018-08-18T21:44:14.325Z,7.97
2018-08-18T21:46:42.025Z,8.70
2018-08-18T21:49:09.963Z,8.50
2018-08-18T21:51:37.188Z,8.70
2018-08-18T21:54:04.479Z,8.13
2018-08-18T21:56:40.128Z,7.83
2018-08-18T21:59:09.010Z,8.37
2018-08-18T22:01:36.290Z,7.53
2018-08-18T22:04:03.934Z,8.20
2018-08-18T22:06:31.266Z,8.30
2018-08-18T22:09:15.652Z,8.60
2018-08-18T22:11:43.059Z,8.57
2018-08-18T22:14:13.533Z,8.07
2018-08-18T22:16:49.196Z,8.77
2018-08-18T22:19:18.909Z,8.03
2018-08-18T22:21:46.171Z,8.67
2018-08-18T22:24:13.410Z,8.07
2018-08-18T22:26:40.638Z,7.90
2018-08-18T22:29:07.889Z,8.07
2018-08-18T22:31:35.147Z,8.60
2018-08-18T22:34:03.632Z,8.97
2018-08-18T22:36:32.090Z,9.53
2018-08-18T22:38:59.764Z,8.47
2018-08-18T22:41:26.992Z,8.80
2018-08-18T22:43:54.895Z,9.80
2018-08-18T22:46:22.416Z,9.27
2018-08-18T22:48:49.697Z,8.77
2018-08-18T22:51:17.174Z,9.63
2018-08-18T22:53:46.570Z,10.37
2018-08-18T22:56:13.772Z,10.57
2018-08-18T22:58:50.947Z,10.17
2018-08-18T23:01:18.140Z,10.80
2018-08-18T23:03:45.490Z,10.97
2018-08-18T23:06:12.753Z,10.37
2018-08-18T23:08:39.989Z,10.50
2018-08-18T23:11:07.199Z,9.97
2018-08-18T23:13:34.426Z,10.40
2018-08-18T23:16:01.702Z,10.53
2018-08-18T23:18:28.963Z,10.17
2018-08-18T23:20:56.152Z,11.20
2018-08-18T23:23:23.392Z,11.50
2018-08-18T23:25:52.588Z,9.77
2018-08-18T23:28:19.799Z,11.23
2018-08-18T23:30:47.000Z,10.83
2018-08-18T23:33:14.246Z,10.23
2018-08-18T23:35:41.455Z,9.27
2018-08-18T23:38:08.732Z,10.97
2018-08-18T23:40:35.952Z,9.57
2018-08-18T23:43:03.300Z,10.77
2018-08-18T23:45:37.110Z,10.73
2018-08-18T23:48:05.670Z,11.40
2018-08-18T23:50:35.491Z,10.83
2018-08-18T23:53:05.258Z,11.47
2018-08-18T23:55:32.475Z,11.17
2018-08-18T23:58:00.574Z,11.67
